Time;durP1;ratioP1;P1;durP2;ratioP2;P2;SDS_P1;SDS_P2;PMS_P1;PMS_P2;Temp;Humidity;BMP_temperature;BMP_pressure;BME280_temperature;BME280_humidity;BME280_pressure;Samples;Min_cycle;Max_cycle;Signal;HPM_P1;HPM_P2
2021/12/15 00:00:42;;;;;;;16.17;6.63;;;9.60;99.90;;;;;;5088277;28;20470;-83
2021/12/15 00:03:10;;;;;;;12.93;7.13;;;9.60;92.30;;;;;;5095423;28;20717;-82
2021/12/15 00:05:41;;;;;;;16.50;8.17;;;9.50;99.90;;;;;;5095049;28;20460;-82
2021/12/15 00:08:11;;;;;;;18.03;8.03;;;9.50;99.90;;;;;;5095532;28;20449;-83
2021/12/15 00:10:41;;;;;;;15.03;7.03;;;9.60;99.90;;;;;;5093021;28;20478;-81
2021/12/15 00:13:12;;;;;;;13.70;6.87;;;9.60;99.90;;;;;;5091024;28;20521;-83
2021/12/15 00:15:40;;;;;;;10.70;6.90;;;9.60;99.90;;;;;;5091687;28;20472;-82
2021/12/15 00:18:08;;;;;;;14.47;8.17;;;9.60;99.90;;;;;;5093676;27;20453;-83
2021/12/15 00:20:37;;;;;;;11.67;6.90;;;9.60;99.90;;;;;;5101010;27;21020;-84
2021/12/15 00:23:07;;;;;;;14.87;8.13;;;9.60;99.90;;;;;;5098759;27;20833;-81
2021/12/15 00:25:40;;;;;;;12.70;7.20;;;9.60;99.90;;;;;;5099541;28;20452;-83
2021/12/15 00:28:08;;;;;;;15.40;8.53;;;9.60;99.90;;;;;;5094985;28;20521;-81
2021/12/15 00:30:38;;;;;;;18.93;7.17;;;9.60;99.90;;;;;;5098381;27;20477;-83
2021/12/15 00:33:07;;;;;;;18.03;7.97;;;9.60;99.90;;;;;;5097895;27;20458;-83
2021/12/15 00:35:36;;;;;;;14.80;7.20;;;9.60;99.90;;;;;;5100374;27;20513;-84
2021/12/15 00:38:06;;;;;;;19.17;7.97;;;9.60;99.90;;;;;;5092529;27;20453;-84
2021/12/15 00:40:35;;;;;;;14.93;7.97;;;9.60;99.90;;;;;;5095231;28;20486;-82
2021/12/15 00:43:03;;;;;;;16.57;7.33;;;9.60;99.90;;;;;;5091289;27;20476;-84
2021/12/15 00:45:32;;;;;;;14.83;8.30;;;9.60;99.90;;;;;;5092637;27;20462;-83
2021/12/15 00:48:01;;;;;;;14.17;9.00;;;9.60;99.90;;;;;;5094696;27;20942;-84
2021/12/15 00:50:32;;;;;;;14.90;7.20;;;9.60;99.90;;;;;;5094830;27;20586;-84
2021/12/15 00:53:00;;;;;;;20.50;8.37;;;9.60;99.90;;;;;;5099512;27;20466;-82
2021/12/15 00:55:31;;;;;;;20.70;9.33;;;9.60;99.90;;;;;;5088315;28;21004;-83
2021/12/15 00:58:01;;;;;;;18.03;8.20;;;9.50;99.90;;;;;;5094668;28;20473;-84
2021/12/15 01:00:32;;;;;;;16.73;8.40;;;9.50;99.90;;;;;;5089984;27;20479;-84
2021/12/15 01:03:00;;;;;;;13.27;7.70;;;9.50;99.90;;;;;;5095898;28;20575;-84
2021/12/15 01:05:34;;;;;;;19.80;8.40;;;9.50;99.90;;;;;;5093163;27;21064;-85
2021/12/15 01:08:05;;;;;;;19.77;8.23;;;9.50;99.90;;;;;;5101006;28;20511;-84
2021/12/15 01:10:56;;;;;;;19.97;7.70;;;9.50;99.90;;;;;;5093079;28;20512;-84
2021/12/15 01:21:47;;;;;;;23.50;8.83;;;9.50;99.90;;;;;;5103947;28;20453;-84
2021/12/15 01:24:16;;;;;;;21.43;8.70;;;9.50;99.90;;;;;;5093442;27;20521;-84
2021/12/15 01:26:46;;;;;;;16.97;8.70;;;9.50;99.90;;;;;;5101840;28;20894;-82
2021/12/15 01:29:14;;;;;;;18.30;8.43;;;9.50;99.90;;;;;;5099870;28;20492;-83
2021/12/15 01:31:42;;;;;;;22.23;10.73;;;9.50;99.90;;;;;;5095443;28;20463;-83
2021/12/15 01:34:10;;;;;;;15.03;8.30;;;9.50;99.90;;;;;;5098299;27;20563;-84
2021/12/15 01:36:39;;;;;;;23.50;9.00;;;9.50;99.90;;;;;;5097507;28;20702;-84
2021/12/15 01:39:07;;;;;;;15.13;8.20;;;9.50;99.90;;;;;;5096266;28;20473;-83
2021/12/15 01:41:36;;;;;;;16.13;8.53;;;9.50;99.90;;;;;;5097693;28;20458;-83
2021/12/15 01:46:59;;;;;;;14.87;7.13;;;9.50;99.90;;;;;;5093727;28;20817;-85
2021/12/15 01:49:32;;;;;;;20.20;8.23;;;9.50;99.90;;;;;;5090487;27;20561;-84
2021/12/15 01:52:04;;;;;;;8.07;5.47;;;9.50;99.90;;;;;;5099424;28;20462;-82
2021/12/15 01:54:34;;;;;;;7.50;4.40;;;9.50;27.40;;;;;;5091192;27;20966;-84
2021/12/15 01:57:03;;;;;;;6.03;3.70;;;9.50;1.00;;;;;;5101234;27;20471;-83
2021/12/15 01:59:34;;;;;;;9.93;4.13;;;9.50;1.00;;;;;;5094912;27;20552;-83
2021/12/15 02:02:03;;;;;;;8.10;5.23;;;9.50;1.00;;;;;;5085929;27;20579;-84
2021/12/15 02:04:31;;;;;;;15.80;7.17;;;9.50;1.00;;;;;;5097935;28;21096;-83
2021/12/15 02:07:02;;;;;;;18.73;6.90;;;9.50;1.00;;;;;;5101349;28;20870;-82
2021/12/15 02:09:52;;;;;;;17.20;7.87;;;9.50;1.00;;;;;;5100351;28;20472;-83
2021/12/15 02:12:23;;;;;;;11.03;6.90;;;9.50;28.80;;;;;;5096214;28;20997;-83
2021/12/15 02:14:53;;;;;;;14.13;6.63;;;9.50;31.10;;;;;;5092349;28;20452;-83
2021/12/15 02:17:23;;;;;;;14.23;7.13;;;9.50;29.80;;;;;;5101369;28;20470;-83
2021/12/15 02:19:51;;;;;;;12.30;6.90;;;9.50;44.10;;;;;;5083850;27;20478;-81
2021/12/15 02:22:21;;;;;;;14.67;7.63;;;9.50;51.00;;;;;;5099989;28;20448;-82
2021/12/15 02:24:51;;;;;;;13.83;7.00;;;9.50;62.70;;;;;;5092699;27;21008;-83
2021/12/15 02:27:19;;;;;;;15.40;6.97;;;9.50;32.20;;;;;;5088795;28;20531;-85
2021/12/15 02:29:52;;;;;;;12.53;6.70;;;9.50;15.10;;;;;;5094811;27;20468;-84
2021/12/15 02:32:32;;;;;;;14.10;6.87;;;9.50;22.40;;;;;;5086580;28;20458;-85
2021/12/15 02:37:48;;;;;;;12.73;6.07;;;9.50;51.00;;;;;;5096324;27;20456;-85
2021/12/15 02:40:20;;;;;;;17.23;7.00;;;9.50;54.30;;;;;;5101413;28;20629;-86
2021/12/15 02:42:50;;;;;;;9.60;5.70;;;9.50;37.30;;;;;;5100653;27;21016;-85
2021/12/15 02:45:22;;;;;;;16.27;8.00;;;9.50;44.70;;;;;;5100237;28;20474;-84
2021/12/15 02:47:50;;;;;;;12.73;6.07;;;9.50;54.60;;;;;;5096232;28;20472;-84
2021/12/15 02:50:24;;;;;;;16.27;7.70;;;9.50;74.60;;;;;;5101253;28;20477;-85
2021/12/15 02:52:54;;;;;;;11.77;7.20;;;9.40;53.90;;;;;;5097438;27;20546;-84
2021/12/15 02:55:22;;;;;;;11.70;6.30;;;9.40;32.90;;;;;;5095962;28;20470;-86
2021/12/15 02:57:51;;;;;;;11.13;6.90;;;9.40;55.80;;;;;;5093641;28;20476;-86
2021/12/15 03:00:22;;;;;;;10.97;6.00;;;9.40;1.00;;;;;;5099328;28;20470;-85
2021/12/15 03:05:58;;;;;;;11.73;6.97;;;9.40;6.40;;;;;;5037135;28;20454;-84
2021/12/15 03:08:47;;;;;;;8.97;4.87;;;9.30;1.00;;;;;;5075386;28;20465;-84
2021/12/15 03:16:45;;;;;;;8.70;4.30;;;9.30;1.00;;;;;;5095183;28;20551;-85
2021/12/15 03:19:14;;;;;;;7.50;4.03;;;9.30;1.00;;;;;;5093758;27;21061;-83
2021/12/15 03:21:42;;;;;;;7.20;4.40;;;9.30;1.00;;;;;;5095803;28;20468;-85
2021/12/15 03:24:16;;;;;;;8.60;4.17;;;9.30;1.00;;;;;;5096214;28;20483;-83
2021/12/15 03:26:52;;;;;;;5.50;3.53;;;9.30;1.00;;;;;;5102599;28;20469;-82
2021/12/15 03:35:05;;;;;;;5.90;3.37;;;9.30;1.00;;;;;;5095628;27;20456;-84
2021/12/15 03:37:36;;;;;;;6.47;3.97;;;9.30;1.00;;;;;;5091091;28;20568;-84
2021/12/15 03:40:10;;;;;;;7.37;3.90;;;9.30;1.00;;;;;;5086561;28;20486;-84
2021/12/15 03:42:41;;;;;;;5.40;3.63;;;9.30;1.00;;;;;;5084364;28;20443;-83
2021/12/15 03:45:12;;;;;;;5.80;4.73;;;9.40;1.00;;;;;;5098538;28;20857;-83
2021/12/15 03:47:43;;;;;;;4.90;3.07;;;9.30;1.00;;;;;;5094903;28;20460;-84
2021/12/15 03:50:15;;;;;;;4.47;2.60;;;9.40;1.00;;;;;;5094927;28;20554;-82
2021/12/15 03:52:48;;;;;;;5.83;2.80;;;9.30;1.00;;;;;;5095431;27;20443;-84
2021/12/15 03:55:19;;;;;;;4.93;3.50;;;9.30;1.00;;;;;;5098164;28;20452;-83
2021/12/15 03:57:51;;;;;;;4.70;3.70;;;9.30;1.00;;;;;;5100654;27;20471;-83
2021/12/15 04:00:20;;;;;;;6.30;4.33;;;9.40;1.00;;;;;;5097125;28;20465;-84
2021/12/15 04:02:49;;;;;;;7.00;4.00;;;9.30;1.00;;;;;;5100664;27;20595;-83
2021/12/15 04:05:20;;;;;;;7.10;4.97;;;9.30;1.00;;;;;;5095229;27;20471;-84
2021/12/15 04:07:51;;;;;;;6.50;4.50;;;9.40;1.00;;;;;;5090332;28;20621;-81
2021/12/15 04:10:25;;;;;;;6.00;4.83;;;9.30;1.00;;;;;;5102901;28;20470;-83
2021/12/15 04:12:54;;;;;;;6.73;3.80;;;9.40;1.00;;;;;;5098456;27;20463;-81
2021/12/15 04:15:28;;;;;;;7.33;4.20;;;9.60;1.00;;;;;;5095001;28;20901;-83
2021/12/15 04:18:00;;;;;;;5.80;4.30;;;9.40;1.00;;;;;;5101152;28;20871;-84
2021/12/15 04:20:31;;;;;;;4.83;3.80;;;9.40;1.00;;;;;;5096367;27;20471;-83
2021/12/15 04:22:59;;;;;;;6.03;3.80;;;9.40;1.00;;;;;;5096579;28;20467;-81
2021/12/15 04:25:31;;;;;;;5.53;3.70;;;9.40;1.00;;;;;;5104412;27;20585;-83
2021/12/15 04:28:02;;;;;;;7.43;3.77;;;9.40;1.00;;;;;;5094165;28;20456;-83
2021/12/15 04:30:33;;;;;;;7.07;4.60;;;9.40;1.00;;;;;;5102123;27;20474;-83
2021/12/15 04:33:07;;;;;;;5.57;3.57;;;9.40;1.00;;;;;;5097992;27;21378;-82
2021/12/15 04:35:35;;;;;;;5.37;3.63;;;9.40;1.00;;;;;;5102646;28;20449;-83
2021/12/15 04:38:04;;;;;;;6.77;4.50;;;9.40;1.00;;;;;;5099585;28;21126;-83
2021/12/15 04:40:34;;;;;;;3.83;3.00;;;9.40;1.00;;;;;;5098663;28;20467;-83
2021/12/15 04:43:02;;;;;;;5.90;4.00;;;9.40;1.00;;;;;;5101625;27;20883;-81
2021/12/15 04:45:31;;;;;;;6.47;4.53;;;9.40;1.00;;;;;;5092986;27;20479;-82
2021/12/15 04:47:59;;;;;;;6.20;3.60;;;9.40;1.00;;;;;;5097195;27;21018;-84
2021/12/15 04:50:29;;;;;;;5.47;3.73;;;9.40;1.00;;;;;;5098020;27;21963;-82
2021/12/15 04:52:59;;;;;;;5.53;3.37;;;9.30;1.00;;;;;;5103291;27;20469;-82
2021/12/15 04:55:29;;;;;;;5.80;3.70;;;9.40;1.00;;;;;;5095374;28;20981;-82
2021/12/15 04:57:59;;;;;;;8.60;4.07;;;9.30;1.00;;;;;;5096740;27;20442;-82
2021/12/15 05:00:33;;;;;;;5.40;3.10;;;9.20;1.00;;;;;;5094377;27;20476;-82
2021/12/15 05:03:03;;;;;;;4.80;3.20;;;9.20;1.00;;;;;;5098123;27;20648;-82
2021/12/15 05:05:33;;;;;;;4.40;3.67;;;9.20;1.00;;;;;;5098294;27;20488;-81
2021/12/15 05:08:02;;;;;;;5.23;3.50;;;9.30;1.00;;;;;;5091478;28;20450;-82
2021/12/15 05:10:31;;;;;;;6.03;3.43;;;9.30;1.00;;;;;;5103404;28;20514;-83
2021/12/15 05:13:01;;;;;;;5.40;3.07;;;9.30;1.00;;;;;;5092248;27;20463;-83
2021/12/15 05:15:30;;;;;;;5.77;3.67;;;9.30;1.00;;;;;;5098310;28;20453;-84
2021/12/15 05:17:58;;;;;;;3.80;2.63;;;9.20;1.00;;;;;;5097441;27;20494;-83
2021/12/15 05:20:27;;;;;;;4.50;3.63;;;9.10;1.00;;;;;;5100639;27;20520;-83
2021/12/15 05:22:56;;;;;;;6.37;3.40;;;9.10;1.00;;;;;;5100473;28;20453;-82
2021/12/15 05:25:24;;;;;;;6.97;4.47;;;9.10;1.00;;;;;;5096218;27;21003;-82
2021/12/15 05:27:53;;;;;;;5.87;3.37;;;9.10;1.00;;;;;;5097699;27;20763;-84
2021/12/15 05:30:23;;;;;;;5.43;3.27;;;9.20;1.00;;;;;;5095110;28;21063;-84
2021/12/15 05:32:51;;;;;;;4.90;3.60;;;9.20;1.00;;;;;;5103614;28;20534;-76
2021/12/15 05:35:23;;;;;;;3.33;2.63;;;9.20;1.00;;;;;;5090515;27;20507;-81
2021/12/15 05:37:54;;;;;;;4.50;3.23;;;9.10;1.00;;;;;;5097847;27;20842;-80
2021/12/15 05:40:23;;;;;;;3.20;2.90;;;9.00;1.00;;;;;;5094122;28;20558;-82
2021/12/15 05:42:56;;;;;;;3.97;3.00;;;9.10;1.00;;;;;;5092610;27;20447;-82
2021/12/15 05:45:26;;;;;;;3.47;2.93;;;9.10;1.00;;;;;;5093903;27;20742;-81
2021/12/15 05:47:54;;;;;;;5.63;3.13;;;9.10;1.00;;;;;;5097075;27;21071;-82
2021/12/15 05:50:23;;;;;;;3.73;2.40;;;9.20;1.00;;;;;;5093713;27;20474;-84
2021/12/15 05:52:51;;;;;;;4.90;2.50;;;9.20;1.00;;;;;;5088457;28;20474;-82
2021/12/15 05:55:20;;;;;;;4.23;2.03;;;9.20;1.00;;;;;;5091983;28;20461;-83
2021/12/15 05:57:49;;;;;;;2.43;2.00;;;9.30;1.00;;;;;;5095046;28;20525;-80
2021/12/15 06:00:21;;;;;;;2.53;1.90;;;9.30;1.00;;;;;;5090917;28;20474;-82
2021/12/15 06:02:51;;;;;;;3.07;1.80;;;9.30;1.00;;;;;;5098099;28;21110;-82
2021/12/15 06:05:19;;;;;;;3.97;2.50;;;9.30;1.00;;;;;;5095931;27;20985;-83
2021/12/15 06:07:49;;;;;;;2.10;1.93;;;9.30;1.00;;;;;;5102986;28;20466;-82
2021/12/15 06:10:21;;;;;;;3.00;2.10;;;9.20;1.00;;;;;;5085788;27;20996;-84
2021/12/15 06:12:50;;;;;;;4.23;3.00;;;9.10;1.00;;;;;;5095669;28;21022;-83
2021/12/15 06:15:22;;;;;;;5.30;3.20;;;9.10;1.00;;;;;;5089603;28;20461;-83
2021/12/15 06:17:55;;;;;;;4.30;2.33;;;9.20;1.00;;;;;;5095285;27;20978;-82
2021/12/15 06:20:23;;;;;;;4.40;2.50;;;9.20;1.00;;;;;;5093614;27;20558;-82
2021/12/15 06:22:53;;;;;;;2.67;2.47;;;9.20;1.00;;;;;;5091659;27;20538;-82
2021/12/15 06:25:22;;;;;;;3.08;2.75;;;9.20;1.00;;;;;;5093420;28;20475;-83
2021/12/15 06:27:51;;;;;;;3.40;2.38;;;9.30;1.00;;;;;;5089142;27;20615;-83
2021/12/15 06:30:19;;;;;;;3.13;2.63;;;9.30;1.00;;;;;;5086804;28;20219;-83
2021/12/15 06:32:47;;;;;;;3.50;3.20;;;9.30;1.00;;;;;;5090253;28;20536;-82
2021/12/15 06:35:17;;;;;;;2.40;1.97;;;9.40;1.00;;;;;;5092096;28;20455;-80
2021/12/15 06:37:46;;;;;;;2.03;1.80;;;9.40;1.00;;;;;;5087108;28;20459;-82
2021/12/15 06:40:14;;;;;;;2.03;1.67;;;9.40;1.00;;;;;;5089178;27;20975;-81
2021/12/15 06:42:43;;;;;;;2.30;1.70;;;9.30;1.00;;;;;;5086315;28;20463;-82
2021/12/15 06:45:16;;;;;;;3.47;2.03;;;9.30;1.00;;;;;;5088094;28;20468;-80
2021/12/15 06:58:50;;;;;;;3.13;2.10;;;9.20;1.00;;;;;;5090374;28;20494;-82
2021/12/15 07:01:19;;;;;;;3.57;2.10;;;9.30;1.00;;;;;;5091842;28;20466;-82
2021/12/15 07:03:49;;;;;;;3.40;2.30;;;9.30;1.00;;;;;;5087346;27;20495;-81
2021/12/15 07:06:19;;;;;;;2.70;2.40;;;9.30;1.00;;;;;;5088634;28;21010;-82
2021/12/15 07:08:47;;;;;;;4.57;2.23;;;9.30;1.00;;;;;;5096440;28;20572;-81
2021/12/15 07:11:16;;;;;;;3.13;2.23;;;9.30;1.00;;;;;;5091359;28;20455;-82
2021/12/15 07:13:44;;;;;;;3.00;2.70;;;9.30;1.00;;;;;;5096977;27;20463;-80
2021/12/15 07:16:13;;;;;;;2.97;2.20;;;9.30;1.00;;;;;;5089883;28;21037;-81
2021/12/15 07:18:48;;;;;;;5.93;2.73;;;9.30;1.00;;;;;;5086356;28;20456;-83
2021/12/15 07:21:22;;;;;;;4.60;2.60;;;9.50;1.00;;;;;;5097937;28;20859;-83
2021/12/15 07:23:54;;;;;;;2.20;2.00;;;9.30;1.00;;;;;;5098988;28;20451;-81
2021/12/15 07:26:23;;;;;;;3.30;3.00;;;9.30;1.00;;;;;;5086528;28;20466;-83
2021/12/15 07:28:51;;;;;;;2.70;2.50;;;9.30;1.00;;;;;;5086821;28;20475;-83
2021/12/15 07:31:22;;;;;;;3.23;2.90;;;9.30;1.00;;;;;;5089050;28;20462;-83
2021/12/15 07:33:50;;;;;;;6.40;3.17;;;9.30;1.00;;;;;;5088216;28;20468;-83
2021/12/15 07:36:21;;;;;;;2.53;2.33;;;9.30;1.00;;;;;;5093073;28;20500;-82
2021/12/15 07:38:55;;;;;;;3.20;2.90;;;9.30;1.00;;;;;;5088611;28;20476;-83
2021/12/15 07:41:28;;;;;;;3.17;2.70;;;9.30;1.00;;;;;;5096403;28;20455;-83
2021/12/15 07:43:59;;;;;;;3.40;2.47;;;9.20;1.00;;;;;;5090018;28;20464;-82
2021/12/15 07:46:48;;;;;;;5.93;2.80;;;9.20;1.00;;;;;;5094396;28;20564;-81
2021/12/15 07:49:18;;;;;;;7.13;4.07;;;9.20;1.00;;;;;;5093809;28;20508;-83
2021/12/15 07:51:48;;;;;;;6.77;2.90;;;9.20;1.00;;;;;;5092822;28;21110;-83
2021/12/15 07:54:19;;;;;;;5.47;3.37;;;9.30;1.00;;;;;;5096847;28;20460;-82
2021/12/15 07:56:47;;;;;;;5.73;3.30;;;8.90;1.00;;;;;;5099274;28;20451;-80
2021/12/15 07:59:15;;;;;;;4.77;2.80;;;9.30;1.00;;;;;;5095011;28;20482;-82
2021/12/15 08:01:43;;;;;;;4.67;3.30;;;9.30;1.00;;;;;;5085679;28;20452;-82
2021/12/15 08:04:17;;;;;;;6.30;2.90;;;9.30;1.00;;;;;;5093632;28;20980;-82
2021/12/15 08:06:46;;;;;;;4.83;4.00;;;9.30;1.00;;;;;;5089836;28;20474;-82
2021/12/15 08:09:16;;;;;;;4.93;3.20;;;9.20;1.00;;;;;;5089068;28;20508;-82
2021/12/15 08:11:45;;;;;;;4.20;3.20;;;9.20;1.00;;;;;;5088377;28;20460;-82
2021/12/15 08:14:13;;;;;;;4.23;3.80;;;9.10;1.00;;;;;;5093101;28;20838;-82
2021/12/15 08:16:41;;;;;;;6.30;4.00;;;9.20;1.00;;;;;;5093105;28;20454;-82
2021/12/15 08:19:14;;;;;;;5.50;3.20;;;9.20;1.00;;;;;;5090833;28;20489;-81
2021/12/15 08:21:42;;;;;;;6.37;4.97;;;9.10;1.00;;;;;;5091127;28;20455;-81
2021/12/15 08:24:11;;;;;;;8.93;5.23;;;9.10;1.00;;;;;;5094672;28;21440;-81
2021/12/15 08:26:41;;;;;;;8.60;4.40;;;9.10;1.00;;;;;;5100803;28;20854;-82
2021/12/15 08:29:09;;;;;;;6.00;3.73;;;9.00;1.00;;;;;;5096070;28;21050;-82
2021/12/15 08:31:38;;;;;;;5.87;4.13;;;9.00;1.00;;;;;;5097189;28;20449;-81
2021/12/15 08:34:08;;;;;;;5.60;3.70;;;9.00;1.00;;;;;;5093309;28;20469;-82
2021/12/15 08:36:37;;;;;;;5.37;4.27;;;8.90;1.00;;;;;;5098191;28;20474;-81
2021/12/15 08:39:06;;;;;;;5.33;4.10;;;8.90;1.00;;;;;;5105170;28;20906;-82
2021/12/15 08:41:35;;;;;;;6.10;3.90;;;8.90;1.00;;;;;;5106424;28;20453;-82
2021/12/15 08:44:08;;;;;;;6.20;4.77;;;8.90;1.00;;;;;;5101220;27;20470;-82
2021/12/15 08:46:39;;;;;;;6.20;4.40;;;9.00;1.00;;;;;;5096004;28;20482;-80
2021/12/15 08:49:10;;;;;;;3.73;3.23;;;9.00;1.00;;;;;;5098673;28;20559;-82
2021/12/15 08:51:38;;;;;;;4.53;3.50;;;9.00;1.00;;;;;;5099858;27;20740;-82
2021/12/15 08:54:14;;;;;;;6.83;3.53;;;9.00;1.00;;;;;;5100412;28;20472;-83
2021/12/15 08:56:43;;;;;;;5.73;4.40;;;9.00;1.00;;;;;;5102500;27;20481;-82
2021/12/15 08:59:13;;;;;;;6.33;4.73;;;9.00;1.00;;;;;;5095766;28;20475;-83
2021/12/15 09:01:44;;;;;;;7.50;3.70;;;8.90;1.00;;;;;;5098697;27;20698;-82
2021/12/15 09:04:13;;;;;;;4.37;3.30;;;8.90;1.00;;;;;;5098331;28;20478;-81
2021/12/15 09:06:44;;;;;;;8.67;4.30;;;8.90;1.00;;;;;;5095123;27;20486;-81
2021/12/15 09:09:15;;;;;;;3.90;3.00;;;8.90;1.00;;;;;;5099214;28;20481;-82
2021/12/15 09:11:44;;;;;;;5.10;2.67;;;8.90;1.00;;;;;;5094054;28;20785;-82
2021/12/15 09:14:15;;;;;;;2.80;2.57;;;8.90;1.00;;;;;;5093025;27;20466;-81
2021/12/15 09:16:47;;;;;;;4.13;2.57;;;8.90;1.00;;;;;;5094512;28;20734;-81
2021/12/15 09:19:16;;;;;;;3.70;2.30;;;9.00;1.00;;;;;;5095350;28;20485;-83
2021/12/15 09:21:46;;;;;;;2.70;1.93;;;8.90;1.00;;;;;;5097163;28;20484;-82
2021/12/15 09:24:15;;;;;;;3.53;2.57;;;8.80;1.00;;;;;;5103278;28;20983;-80
2021/12/15 09:26:43;;;;;;;2.60;1.70;;;8.80;1.00;;;;;;5102020;28;20451;-81
2021/12/15 09:29:13;;;;;;;3.57;2.03;;;8.80;1.00;;;;;;5101299;27;21003;-81
2021/12/15 09:31:42;;;;;;;5.00;1.67;;;8.80;1.00;;;;;;5096986;28;20484;-82
2021/12/15 09:34:17;;;;;;;2.30;1.70;;;8.80;1.00;;;;;;5101829;28;20464;-81
2021/12/15 09:36:47;;;;;;;1.80;1.30;;;8.80;1.00;;;;;;5097583;27;20451;-83
2021/12/15 09:39:19;;;;;;;1.43;1.30;;;8.80;1.00;;;;;;5096204;28;20478;-81
2021/12/15 09:41:49;;;;;;;1.60;1.23;;;8.80;1.00;;;;;;5096831;28;20972;-81
2021/12/15 09:44:23;;;;;;;1.20;1.10;;;8.80;1.00;;;;;;5098407;28;20903;-82
2021/12/15 09:47:13;;;;;;;2.53;1.50;;;8.90;1.00;;;;;;5086586;28;20971;-81
2021/12/15 10:03:55;;;;;;;2.03;1.23;;;8.90;1.00;;;;;;5089098;27;20526;-82
2021/12/15 10:06:35;;;;;;;2.20;1.40;;;8.90;1.00;;;;;;5092104;28;20473;-82
2021/12/15 10:12:21;;;;;;;1.67;1.20;;;9.00;1.00;;;;;;5061329;28;20485;-82
2021/12/15 10:17:51;;;;;;;2.07;1.47;;;8.90;1.00;;;;;;5102174;27;20460;-82
2021/12/15 10:20:22;;;;;;;1.20;1.00;;;8.90;1.00;;;;;;5100237;28;20489;-82
2021/12/15 10:22:58;;;;;;;1.80;1.50;;;8.80;1.00;;;;;;5094399;28;20490;-82
2021/12/15 10:25:28;;;;;;;2.90;1.30;;;9.10;1.00;;;;;;5094838;28;20690;-82
2021/12/15 10:28:03;;;;;;;1.80;1.40;;;8.90;1.00;;;;;;5102541;27;20477;-83
2021/12/15 10:30:33;;;;;;;1.63;1.47;;;9.00;1.00;;;;;;5093441;28;20465;-82
2021/12/15 10:33:06;;;;;;;2.70;2.30;;;9.00;1.00;;;;;;5093202;28;20501;-82
2021/12/15 10:35:37;;;;;;;1.37;1.27;;;9.00;99.90;;;;;;5089941;27;21065;-81
2021/12/15 10:38:28;;;;;;;2.70;1.80;;;8.90;99.90;;;;;;5101628;28;20466;-81
2021/12/15 10:41:07;;;;;;;1.80;1.70;;;8.90;99.90;;;;;;5087689;28;20459;-82
2021/12/15 10:43:38;;;;;;;1.93;1.83;;;9.00;1.00;;;;;;5089329;28;20472;-82
2021/12/15 10:46:09;;;;;;;3.10;1.60;;;9.00;99.90;;;;;;5088741;27;20874;-82
2021/12/15 10:48:47;;;;;;;1.70;1.60;;;8.90;99.90;;;;;;5091885;27;20480;-82
2021/12/15 10:51:32;;;;;;;3.53;2.13;;;8.70;99.90;;;;;;5100381;27;20467;-82
2021/12/15 10:54:04;;;;;;;2.17;1.63;;;8.40;99.90;;;;;;5095260;28;20699;-81
2021/12/15 10:56:34;;;;;;;1.70;1.60;;;8.40;1.00;;;;;;5103426;28;21032;-83
2021/12/15 10:59:06;;;;;;;2.93;2.23;;;8.30;1.00;;;;;;5088142;28;20567;-83
2021/12/15 11:01:46;;;;;;;2.97;1.60;;;8.40;1.00;;;;;;5095409;28;20454;-82
2021/12/15 11:04:26;;;;;;;2.20;1.93;;;8.60;1.00;;;;;;5091069;27;20484;-82
2021/12/15 11:07:11;;;;;;;3.10;1.93;;;8.70;1.00;;;;;;5095302;28;20462;-82
2021/12/15 11:09:42;;;;;;;3.77;2.03;;;8.70;1.00;;;;;;5092631;28;20873;-82
2021/12/15 11:12:14;;;;;;;2.30;2.10;;;8.70;1.00;;;;;;5100090;28;21038;-82
2021/12/15 11:14:46;;;;;;;3.60;1.93;;;8.70;1.00;;;;;;5099128;28;20552;-82
2021/12/15 11:17:17;;;;;;;4.57;2.10;;;8.60;1.00;;;;;;5101727;28;20491;-81
2021/12/15 11:19:59;;;;;;;4.57;2.60;;;8.60;1.00;;;;;;5090643;28;20530;-81
2021/12/15 11:22:33;;;;;;;2.50;2.03;;;8.70;1.00;;;;;;5089461;27;20448;-82
2021/12/15 11:25:03;;;;;;;2.70;1.90;;;8.70;99.90;;;;;;5091096;27;20495;-81
2021/12/15 11:27:32;;;;;;;3.70;2.00;;;8.60;1.00;;;;;;5090878;28;20448;-81
2021/12/15 11:30:00;;;;;;;4.70;2.27;;;8.70;1.00;;;;;;5094028;28;20850;-82
2021/12/15 11:32:46;;;;;;;3.20;1.90;;;8.80;1.00;;;;;;5094787;28;20834;-82
2021/12/15 11:35:19;;;;;;;3.80;2.10;;;8.80;1.00;;;;;;5088328;28;20732;-82
2021/12/15 11:37:55;;;;;;;3.40;2.37;;;8.80;99.90;;;;;;5092031;28;20491;-83
2021/12/15 11:40:28;;;;;;;2.17;1.97;;;8.80;99.90;;;;;;5084906;28;20928;-83
2021/12/15 11:42:57;;;;;;;2.20;2.00;;;8.80;99.90;;;;;;5091200;28;20459;-79
2021/12/15 11:45:26;;;;;;;3.30;2.00;;;8.80;99.90;;;;;;5096489;28;21057;-82
2021/12/15 11:48:20;;;;;;;2.70;1.90;;;8.70;99.90;;;;;;5095153;28;20536;-82
2021/12/15 11:50:52;;;;;;;3.63;2.17;;;8.60;99.90;;;;;;5091963;28;20486;-83
2021/12/15 11:53:32;;;;;;;4.55;2.17;;;8.70;99.90;;;;;;5090864;28;20472;-82
2021/12/15 11:56:16;;;;;;;3.10;1.83;;;8.50;99.90;;;;;;5088536;28;20237;-82
2021/12/15 11:58:45;;;;;;;2.43;1.40;;;8.50;99.90;;;;;;5088163;28;20466;-80
2021/12/15 12:01:55;;;;;;;2.17;1.97;;;8.50;99.90;;;;;;5095305;28;20500;-81
2021/12/15 12:04:27;;;;;;;1.60;1.50;;;8.60;99.90;;;;;;5049865;28;21014;-82
2021/12/15 12:07:11;;;;;;;3.10;1.90;;;8.50;99.90;;;;;;5089228;28;20875;-79
2021/12/15 12:09:42;;;;;;;2.57;1.83;;;8.40;99.90;;;;;;5089621;28;20504;-82
2021/12/15 12:12:11;;;;;;;2.20;1.50;;;8.30;99.90;;;;;;5095871;28;20465;-82
2021/12/15 12:14:42;;;;;;;2.03;1.47;;;8.30;1.00;;;;;;5088723;27;20264;-82
2021/12/15 12:17:14;;;;;;;2.80;1.90;;;8.40;99.90;;;;;;5092135;27;20614;-82
2021/12/15 12:19:45;;;;;;;3.30;1.87;;;8.50;99.90;;;;;;5089352;28;20478;-82
2021/12/15 12:22:16;;;;;;;1.80;1.67;;;8.40;99.90;;;;;;5098912;27;20859;-82
2021/12/15 12:24:46;;;;;;;2.57;1.50;;;8.80;99.90;;;;;;5100417;28;20443;-82
2021/12/15 12:27:16;;;;;;;4.20;1.80;;;8.50;99.90;;;;;;5095745;27;20504;-81
2021/12/15 12:29:45;;;;;;;2.60;1.80;;;8.40;99.90;;;;;;5090016;27;21137;-82
2021/12/15 12:32:17;;;;;;;1.67;1.57;;;8.50;99.90;;;;;;5096581;28;20545;-82
2021/12/15 12:34:45;;;;;;;3.40;2.60;;;8.50;99.90;;;;;;5094476;28;20731;-82
2021/12/15 12:37:16;;;;;;;2.73;2.03;;;8.50;99.90;;;;;;5097076;28;20617;-82
2021/12/15 12:39:48;;;;;;;3.23;2.13;;;8.60;99.90;;;;;;5097380;28;20496;-83
2021/12/15 12:42:30;;;;;;;3.57;2.00;;;8.60;99.90;;;;;;5105276;28;20455;-83
2021/12/15 12:45:14;;;;;;;2.70;1.67;;;8.60;99.90;;;;;;5096888;28;21179;-82
2021/12/15 12:47:58;;;;;;;3.40;2.00;;;8.60;99.90;;;;;;5097766;27;20589;-80
2021/12/15 13:01:34;;;;;;;2.30;2.10;;;8.20;1.00;;;;;;5107872;27;20466;-83
2021/12/15 13:04:12;;;;;;;2.40;1.97;;;8.30;1.00;;;;;;5098008;28;20438;-80
2021/12/15 13:06:44;;;;;;;5.93;1.73;;;8.20;1.00;;;;;;5092458;28;20453;-79
2021/12/15 13:09:16;;;;;;;3.47;2.45;;;8.00;1.00;;;;;;5092771;28;20612;-82
2021/12/15 13:11:48;;;;;;;3.57;2.67;;;7.90;1.00;;;;;;5102885;28;20886;-82
2021/12/15 13:14:19;;;;;;;3.97;2.30;;;8.00;1.00;;;;;;5100035;28;20528;-84
2021/12/15 13:16:52;;;;;;;3.03;2.37;;;8.20;1.00;;;;;;5097635;28;20560;-84
2021/12/15 13:19:24;;;;;;;4.13;2.23;;;8.40;1.00;;;;;;5094246;27;20494;-81
2021/12/15 13:22:05;;;;;;;9.40;2.70;;;8.50;1.00;;;;;;5092318;28;21017;-83
2021/12/15 13:30:47;;;;;;;2.63;1.83;;;8.30;1.00;;;;;;5096265;28;21096;-84
2021/12/15 13:33:19;;;;;;;3.57;2.20;;;8.20;1.00;;;;;;5099084;28;20472;-82
2021/12/15 13:35:53;;;;;;;4.60;2.30;;;8.30;1.00;;;;;;5092002;28;20453;-81
2021/12/15 13:38:33;;;;;;;3.73;1.97;;;8.30;1.00;;;;;;5092000;27;21350;-82
2021/12/15 13:41:20;;;;;;;4.47;2.67;;;8.40;1.00;;;;;;5099018;28;20453;-82
2021/12/15 13:44:00;;;;;;;4.53;2.10;;;8.50;1.00;;;;;;5095412;28;20489;-84
2021/12/15 13:46:48;;;;;;;4.60;2.40;;;8.40;1.00;;;;;;5096080;28;20516;-83
2021/12/15 13:49:28;;;;;;;2.37;1.60;;;8.40;1.00;;;;;;5093170;27;20509;-82
2021/12/15 13:52:09;;;;;;;3.47;1.73;;;8.50;1.00;;;;;;5095737;28;20452;-82
2021/12/15 13:55:24;;;;;;;4.77;2.63;;;8.60;1.00;;;;;;5086784;27;20762;-81
2021/12/15 13:58:20;;;;;;;5.23;2.13;;;8.50;1.00;;;;;;5087324;28;20459;-80
2021/12/15 14:00:55;;;;;;;6.57;2.27;;;8.50;1.00;;;;;;5087221;27;20474;-80
2021/12/15 14:03:31;;;;;;;3.23;2.93;;;8.50;1.00;;;;;;5102299;28;20490;-80
2021/12/15 14:06:11;;;;;;;4.97;2.60;;;8.50;1.00;;;;;;5090537;28;20900;-81
2021/12/15 14:08:42;;;;;;;3.97;2.23;;;8.50;1.00;;;;;;5092829;28;21079;-80
2021/12/15 14:11:21;;;;;;;4.30;2.50;;;8.30;1.00;;;;;;5091040;28;20489;-78
2021/12/15 14:14:00;;;;;;;3.67;2.50;;;8.30;1.00;;;;;;5087795;28;20778;-80
2021/12/15 14:16:48;;;;;;;4.43;2.73;;;8.40;1.00;;;;;;5087125;27;20450;-81
2021/12/15 14:19:24;;;;;;;3.53;2.73;;;8.40;1.00;;;;;;5097004;28;21005;-81
2021/12/15 14:21:58;;;;;;;4.40;3.07;;;8.40;1.00;;;;;;5085428;28;20454;-82
2021/12/15 14:24:27;;;;;;;3.87;2.80;;;8.40;1.00;;;;;;5089505;28;20965;-81
2021/12/15 14:26:56;;;;;;;4.27;2.83;;;8.40;1.00;;;;;;5093986;28;20442;-79
2021/12/15 14:29:28;;;;;;;3.17;2.43;;;8.40;1.00;;;;;;5090598;28;20907;-82
2021/12/15 14:32:00;;;;;;;4.87;3.20;;;8.50;1.00;;;;;;5090763;28;20880;-82
2021/12/15 14:34:30;;;;;;;4.67;2.60;;;8.50;1.00;;;;;;5098149;27;21001;-82
2021/12/15 14:37:01;;;;;;;3.60;2.07;;;8.50;1.00;;;;;;5102198;28;20450;-83
2021/12/15 14:39:33;;;;;;;5.13;2.50;;;8.60;1.00;;;;;;5094441;28;20481;-82
2021/12/15 14:42:05;;;;;;;6.50;4.20;;;8.60;1.00;;;;;;5091070;28;21083;-81
2021/12/15 14:44:38;;;;;;;5.27;3.30;;;8.60;1.00;;;;;;5090891;28;20450;-82